Time;durP1;ratioP1;P1;durP2;ratioP2;P2;SDS_P1;SDS_P2;PMS_P1;PMS_P2;Temp;Humidity;BMP_temperature;BMP_pressure;BME280_temperature;BME280_humidity;BME280_pressure;Samples;Min_cycle;Max_cycle;Signal;HPM_P1;HPM_P2
2021/06/15 00:01:26;;;;;;;;;;;;;;;21.56;55.39;101314.22;2059856;28;4080;-72
2021/06/15 00:02:53;;;;;;;;;;;;;;;21.59;55.21;101313.53;2059701;28;3788;-72
2021/06/15 00:04:20;;;;;;;;;;;;;;;21.60;55.27;101314.34;2060096;28;4063;-71
2021/06/15 00:05:47;;;;;;;;;;;;;;;21.62;55.39;101320.53;2058903;28;3996;-72
2021/06/15 00:07:13;;;;;;;;;;;;;;;21.63;55.40;101317.31;2059504;28;3946;-71
2021/06/15 00:08:39;;;;;;;;;;;;;;;21.64;55.34;101321.88;2060248;28;5070;-71
2021/06/15 00:10:06;;;;;;;;;;;;;;;21.66;55.18;101319.47;2060238;28;3994;-72
2021/06/15 00:11:33;;;;;;;;;;;;;;;21.66;55.25;101316.63;2059919;28;4225;-72
2021/06/15 00:13:00;;;;;;;;;;;;;;;21.68;55.12;101319.16;2059310;28;4284;-72
2021/06/15 00:14:27;;;;;;;;;;;;;;;21.68;55.27;101314.28;2059739;28;4851;-71
2021/06/15 00:15:53;;;;;;;;;;;;;;;21.69;55.09;101317.97;2059956;28;4061;-73
2021/06/15 00:17:19;;;;;;;;;;;;;;;21.70;55.28;101316.81;2059577;28;4865;-73
2021/06/15 00:18:45;;;;;;;;;;;;;;;21.70;55.09;101314.78;2060310;28;3845;-73
2021/06/15 00:20:12;;;;;;;;;;;;;;;21.72;55.09;101320.09;2059384;28;3780;-73
2021/06/15 00:21:37;;;;;;;;;;;;;;;21.72;55.08;101312.44;2059708;28;4034;-72
2021/06/15 00:23:05;;;;;;;;;;;;;;;21.73;55.29;101322.63;2059839;28;3976;-72
2021/06/15 00:24:32;;;;;;;;;;;;;;;21.74;55.12;101321.44;2060391;28;4243;-72
2021/06/15 00:25:59;;;;;;;;;;;;;;;21.75;55.11;101317.44;2059970;28;3990;-72
2021/06/15 00:27:28;;;;;;;;;;;;;;;21.76;55.08;101307.69;2058967;28;4016;-72
2021/06/15 00:28:55;;;;;;;;;;;;;;;21.78;55.07;101313.06;2059724;28;5747;-71
2021/06/15 00:30:22;;;;;;;;;;;;;;;21.78;55.31;101305.34;2058775;28;4027;-72
2021/06/15 00:31:48;;;;;;;;;;;;;;;21.80;55.05;101310.66;2060078;28;3809;-72
2021/06/15 00:33:15;;;;;;;;;;;;;;;21.80;55.13;101302.94;2059681;28;3932;-72
2021/06/15 00:34:41;;;;;;;;;;;;;;;21.82;55.26;101301.78;2059987;28;4372;-72
2021/06/15 00:36:08;;;;;;;;;;;;;;;21.83;55.08;101300.59;2060264;28;4392;-72
2021/06/15 00:37:34;;;;;;;;;;;;;;;21.84;55.32;101307.97;2059022;28;4972;-72
2021/06/15 00:39:01;;;;;;;;;;;;;;;21.85;55.14;101303.94;2059827;28;4080;-72
2021/06/15 00:40:28;;;;;;;;;;;;;;;21.86;55.35;101294.19;2059054;28;4248;-72
2021/06/15 00:41:55;;;;;;;;;;;;;;;21.87;55.20;101301.59;2059515;28;3997;-72
2021/06/15 00:43:22;;;;;;;;;;;;;;;21.87;55.17;101296.72;2058041;28;4049;-72
2021/06/15 00:44:49;;;;;;;;;;;;;;;21.89;55.24;101297.22;2060032;28;4804;-73
2021/06/15 00:46:16;;;;;;;;;;;;;;;21.90;55.27;101292.34;2061236;28;3841;-72
2021/06/15 00:47:43;;;;;;;;;;;;;;;21.90;55.19;101289.50;2060661;28;4037;-72
2021/06/15 00:49:10;;;;;;;;;;;;;;;21.92;55.40;101292.84;2061590;28;4325;-72
2021/06/15 00:50:36;;;;;;;;;;;;;;;21.93;55.37;101291.63;2062005;28;4061;-72
2021/06/15 00:52:03;;;;;;;;;;;;;;;21.93;55.11;101289.63;2061785;28;4413;-72
2021/06/15 00:53:29;;;;;;;;;;;;;;;21.93;55.39;101285.94;2060625;28;4223;-71
2021/06/15 00:54:55;;;;;;;;;;;;;;;21.96;55.32;101290.94;2061892;28;3978;-72
2021/06/15 00:56:22;;;;;;;;;;;;;;;21.96;55.27;101296.63;2061391;28;5123;-71
2021/06/15 00:57:49;;;;;;;;;;;;;;;21.96;55.30;101294.63;2046000;28;4205;-71
2021/06/15 00:59:15;;;;;;;;;;;;;;;21.97;55.18;101298.28;2051851;28;4251;-72
2021/06/15 01:00:41;;;;;;;;;;;;;;;21.97;55.25;101295.44;2047232;28;4186;-71
2021/06/15 01:02:08;;;;;;;;;;;;;;;21.98;55.25;101297.13;2045361;28;4018;-72
2021/06/15 01:03:35;;;;;;;;;;;;;;;21.99;55.18;101298.78;2045251;28;4211;-72
2021/06/15 01:05:03;;;;;;;;;;;;;;;21.99;55.35;101293.09;2046813;28;3971;-72
2021/06/15 01:06:30;;;;;;;;;;;;;;;22.00;55.33;101294.78;2045688;28;4022;-71
2021/06/15 01:07:56;;;;;;;;;;;;;;;22.01;55.33;101296.44;2046286;28;4088;-72
2021/06/15 01:09:23;;;;;;;;;;;;;;;22.01;55.26;101293.59;2045491;28;4327;-73
2021/06/15 01:10:50;;;;;;;;;;;;;;;22.01;55.13;101294.41;2046435;28;4443;-72
2021/06/15 01:12:15;;;;;;;;;;;;;;;22.02;55.20;101290.38;2045287;28;3961;-71
2021/06/15 01:13:41;;;;;;;;;;;;;;;22.03;55.13;101288.38;2045775;28;5142;-71
2021/06/15 01:15:08;;;;;;;;;;;;;;;22.02;55.11;101296.06;2045465;28;3871;-71
2021/06/15 01:16:34;;;;;;;;;;;;;;;22.05;55.28;101293.72;2043797;28;4072;-72
2021/06/15 01:18:01;;;;;;;;;;;;;;;22.04;55.24;101289.19;2035749;28;3908;-72
2021/06/15 01:19:27;;;;;;;;;;;;;;;22.05;55.14;101291.69;2051085;28;4234;-71
2021/06/15 01:20:54;;;;;;;;;;;;;;;22.05;55.27;101294.53;2047326;28;4000;-72
2021/06/15 01:22:20;;;;;;;;;;;;;;;22.06;55.07;101293.38;2046158;28;4271;-72
2021/06/15 01:23:47;;;;;;;;;;;;;;;22.06;55.20;101290.53;2045481;28;4085;-72
2021/06/15 01:25:14;;;;;;;;;;;;;;;22.07;55.17;101297.88;2045115;28;4416;-72
2021/06/15 01:26:40;;;;;;;;;;;;;;;22.08;55.12;101291.00;2044782;28;4225;-71
2021/06/15 01:28:07;;;;;;;;;;;;;;;22.10;55.34;101294.31;2043640;28;3910;-71
2021/06/15 01:29:33;;;;;;;;;;;;;;;22.11;55.16;101286.59;2044193;28;4226;-72
2021/06/15 01:30:59;;;;;;;;;;;;;;;22.10;55.34;101288.63;2043870;28;4076;-71
2021/06/15 01:32:26;;;;;;;;;;;;;;;22.11;55.17;101289.44;2043673;28;4050;-72
2021/06/15 01:33:53;;;;;;;;;;;;;;;22.11;55.17;101290.31;2046022;28;3923;-72
2021/06/15 01:35:20;;;;;;;;;;;;;;;22.12;55.23;101294.81;2044542;28;4017;-72
2021/06/15 01:36:47;;;;;;;;;;;;;;;22.13;55.02;101292.78;2046048;28;3962;-71
2021/06/15 01:38:14;;;;;;;;;;;;;;;22.13;55.12;101287.09;2045869;28;3943;-72
2021/06/15 01:39:40;;;;;;;;;;;;;;;22.14;55.27;101288.78;2045699;28;4225;-72
2021/06/15 01:41:07;;;;;;;;;;;;;;;22.13;55.04;101290.78;2044859;28;4067;-72
2021/06/15 01:42:34;;;;;;;;;;;;;;;22.14;55.05;101288.78;2046503;28;4229;-71
2021/06/15 01:43:59;;;;;;;;;;;;;;;22.13;55.13;101287.91;2046542;28;3920;-71
2021/06/15 01:45:26;;;;;;;;;;;;;;;22.15;55.25;101290.44;2045740;28;4242;-72
2021/06/15 01:46:52;;;;;;;;;;;;;;;22.13;55.21;101290.78;2045474;28;4033;-71
2021/06/15 01:48:20;;;;;;;;;;;;;;;22.15;55.18;101287.59;2045720;28;4203;-71
2021/06/15 01:49:47;;;;;;;;;;;;;;;22.16;55.24;101286.38;2045838;28;4315;-70
2021/06/15 01:51:12;;;;;;;;;;;;;;;22.16;55.18;101281.53;2046973;28;3905;-70
2021/06/15 01:52:39;;;;;;;;;;;;;;;22.18;55.33;101281.22;2045514;28;4061;-70
2021/06/15 01:54:11;;;;;;;;;;;;;;;22.18;55.16;101287.75;2045662;28;3916;-71
2021/06/15 01:55:37;;;;;;;;;;;;;;;22.19;55.13;101294.28;2045502;28;4450;-71
2021/06/15 01:57:03;;;;;;;;;;;;;;;22.18;55.25;101290.59;2050170;28;4426;-71
2021/06/15 01:58:30;;;;;;;;;;;;;;;22.19;55.10;101292.28;2061062;28;4545;-70
2021/06/15 01:59:56;;;;;;;;;;;;;;;22.19;55.24;101292.28;2062061;28;4079;-70
2021/06/15 02:01:23;;;;;;;;;;;;;;;22.20;55.32;101288.22;2061138;28;4017;-70
2021/06/15 02:02:49;;;;;;;;;;;;;;;22.20;55.13;101288.22;2055766;28;3930;-70
2021/06/15 02:04:16;;;;;;;;;;;;;;;22.20;55.14;101293.09;2061015;28;3954;-70
2021/06/15 02:05:42;;;;;;;;;;;;;;;22.20;55.17;101288.22;2061382;28;4190;-70
2021/06/15 02:07:10;;;;;;;;;;;;;;;22.22;55.27;101291.56;2062203;28;4080;-71
2021/06/15 02:08:37;;;;;;;;;;;;;;;22.22;55.19;101290.75;2061313;28;4006;-70
2021/06/15 02:10:03;;;;;;;;;;;;;;;22.22;55.20;101291.56;2061304;28;3905;-70
2021/06/15 02:11:30;;;;;;;;;;;;;;;22.23;55.29;101292.41;2060574;28;4158;-70
2021/06/15 02:12:57;;;;;;;;;;;;;;;22.23;55.16;101292.41;2062236;28;4072;-70
2021/06/15 02:14:26;;;;;;;;;;;;;;;22.23;55.22;101286.69;2061017;28;3998;-70
2021/06/15 02:15:53;;;;;;;;;;;;;;;22.22;55.16;101294.44;2061407;28;4067;-71
2021/06/15 02:17:20;;;;;;;;;;;;;;;22.24;55.13;101297.72;2061360;28;4202;-71
2021/06/15 02:18:47;;;;;;;;;;;;;;;22.25;55.25;101301.44;2060777;28;3910;-72
2021/06/15 02:20:14;;;;;;;;;;;;;;;22.24;55.11;101294.88;2062782;28;3873;-71
2021/06/15 02:21:40;;;;;;;;;;;;;;;22.24;55.30;101292.03;2060653;28;4034;-71
2021/06/15 02:23:07;;;;;;;;;;;;;;;22.25;55.08;101292.91;2060953;28;3972;-71
2021/06/15 02:24:33;;;;;;;;;;;;;;;22.26;55.24;101299.41;2060469;28;4222;-75
2021/06/15 02:25:59;;;;;;;;;;;;;;;22.26;55.13;101294.56;2062041;28;3926;-76
2021/06/15 02:27:25;;;;;;;;;;;;;;;22.27;55.19;101292.53;2060943;28;4040;-72
2021/06/15 02:28:51;;;;;;;;;;;;;;;22.28;55.41;101297.88;2060581;28;4001;-75
2021/06/15 02:30:18;;;;;;;;;;;;;;;22.29;55.45;101293.03;2061775;28;4282;-75
2021/06/15 02:31:44;;;;;;;;;;;;;;;22.30;55.43;101289.78;2059692;28;4044;-75
2021/06/15 02:33:11;;;;;;;;;;;;;;;22.30;55.52;101291.81;2061467;28;4113;-69
2021/06/15 02:34:38;;;;;;;;;;;;;;;22.29;55.30;101288.16;2061136;28;4377;-70
2021/06/15 02:36:04;;;;;;;;;;;;;;;22.29;55.29;101293.03;2061227;28;4080;-70
2021/06/15 02:37:31;;;;;;;;;;;;;;;22.29;55.29;101293.03;2061544;28;4167;-70
2021/06/15 02:38:58;;;;;;;;;;;;;;;22.29;55.38;101290.16;2060272;28;4096;-70
2021/06/15 02:40:25;;;;;;;;;;;;;;;22.29;55.24;101295.88;2060924;28;4200;-70
2021/06/15 02:41:52;;;;;;;;;;;;;;;22.30;55.44;101288.97;2061230;28;3938;-70
2021/06/15 02:43:18;;;;;;;;;;;;;;;22.30;55.38;101300.38;2060345;28;4235;-70
2021/06/15 02:44:44;;;;;;;;;;;;;;;22.30;55.18;101295.50;2059875;28;5098;-69
2021/06/15 02:46:11;;;;;;;;;;;;;;;22.31;55.17;101310.59;2060485;28;4041;-70
2021/06/15 02:47:38;;;;;;;;;;;;;;;22.30;55.23;101329.69;2058554;28;4987;-69
2021/06/15 02:49:05;;;;;;;;;;;;;;;22.30;55.10;101306.06;2061194;28;3867;-69
2021/06/15 02:50:32;;;;;;;;;;;;;;;22.30;55.09;101309.75;2060224;28;4206;-69
2021/06/15 02:51:58;;;;;;;;;;;;;;;22.30;55.03;101312.59;2060805;28;4206;-69
2021/06/15 02:53:25;;;;;;;;;;;;;;;22.30;55.21;101309.75;2060036;28;4198;-70
2021/06/15 02:54:51;;;;;;;;;;;;;;;22.31;55.05;101304.91;2061074;28;3838;-70
2021/06/15 02:56:18;;;;;;;;;;;;;;;22.31;55.10;101313.47;2060105;28;4069;-70
2021/06/15 02:57:43;;;;;;;;;;;;;;;22.31;55.08;101316.31;2059502;28;4244;-70
2021/06/15 02:59:09;;;;;;;;;;;;;;;22.33;55.02;101311.06;2060050;28;4148;-70
2021/06/15 03:00:37;;;;;;;;;;;;;;;22.32;55.18;101315.13;2059188;28;4243;-70
2021/06/15 03:02:04;;;;;;;;;;;;;;;22.32;55.06;101315.13;2061013;28;4180;-70
2021/06/15 03:03:30;;;;;;;;;;;;;;;22.31;54.95;101317.13;2059884;28;4248;-71
2021/06/15 03:04:57;;;;;;;;;;;;;;;22.31;55.12;101316.31;2061004;28;4201;-71
2021/06/15 03:06:23;;;;;;;;;;;;;;;22.31;54.98;101317.13;2060328;28;4210;-70
2021/06/15 03:07:50;;;;;;;;;;;;;;;22.32;54.98;101312.25;2058776;28;4194;-71
2021/06/15 03:09:15;;;;;;;;;;;;;;;22.32;55.04;101317.97;2061274;28;3949;-71
2021/06/15 03:10:41;;;;;;;;;;;;;;;22.32;55.02;101317.97;2059462;28;4203;-71
2021/06/15 03:12:08;;;;;;;;;;;;;;;22.32;54.87;101323.66;2060447;28;4034;-71
2021/06/15 03:13:34;;;;;;;;;;;;;;;22.32;54.88;101315.94;2058393;28;4031;-72
2021/06/15 03:15:00;;;;;;;;;;;;;;;22.33;54.80;101319.63;2057626;28;4096;-74
2021/06/15 03:16:27;;;;;;;;;;;;;;;22.33;55.00;101319.63;2060642;28;4235;-73
2021/06/15 03:17:54;;;;;;;;;;;;;;;22.34;55.13;101324.16;2060133;28;3935;-71
2021/06/15 03:19:21;;;;;;;;;;;;;;;22.34;54.98;101322.13;2060226;28;4194;-71
2021/06/15 03:20:47;;;;;;;;;;;;;;;22.34;55.03;101324.16;2060200;28;4136;-71
2021/06/15 03:22:14;;;;;;;;;;;;;;;22.35;55.03;101317.25;2060333;28;3860;-70
2021/06/15 03:23:41;;;;;;;;;;;;;;;22.35;55.02;101323.78;2060939;28;4028;-71
2021/06/15 03:25:06;;;;;;;;;;;;;;;22.34;54.98;101316.44;2060941;28;4168;-70
2021/06/15 03:26:33;;;;;;;;;;;;;;;22.35;55.03;101320.13;2060413;28;4191;-70
2021/06/15 03:28:00;;;;;;;;;;;;;;;22.34;54.92;101315.59;2059650;28;3894;-70
2021/06/15 03:29:27;;;;;;;;;;;;;;;22.34;55.06;101316.44;2061363;28;4174;-71
2021/06/15 03:30:53;;;;;;;;;;;;;;;22.34;55.11;101319.28;2060244;28;4053;-71
2021/06/15 03:32:20;;;;;;;;;;;;;;;22.35;54.95;101322.97;2060911;28;4221;-70
2021/06/15 03:33:46;;;;;;;;;;;;;;;22.35;55.03;101317.25;2060949;28;3905;-70
2021/06/15 03:35:13;;;;;;;;;;;;;;;22.35;54.87;101317.25;2061726;28;3912;-70
2021/06/15 03:36:39;;;;;;;;;;;;;;;22.35;54.87;101320.13;2060434;28;4872;-70
2021/06/15 03:38:06;;;;;;;;;;;;;;;22.35;55.00;101326.66;2060923;28;3773;-71
2021/06/15 03:39:33;;;;;;;;;;;;;;;22.35;54.89;101329.50;2059849;28;5131;-70
2021/06/15 03:41:00;;;;;;;;;;;;;;;22.35;54.81;101329.50;2059777;28;3802;-70
2021/06/15 03:42:27;;;;;;;;;;;;;;;22.35;54.81;101329.50;2059296;28;4275;-70
2021/06/15 03:43:54;;;;;;;;;;;;;;;22.36;54.95;101336.06;2060678;28;4074;-70
2021/06/15 03:45:21;;;;;;;;;;;;;;;22.36;54.82;101330.34;2060187;28;5035;-70
2021/06/15 03:46:48;;;;;;;;;;;;;;;22.35;54.76;101331.53;2059611;28;3896;-70
2021/06/15 03:48:14;;;;;;;;;;;;;;;22.36;54.88;101330.34;2060428;28;5018;-70
2021/06/15 03:49:40;;;;;;;;;;;;;;;22.37;54.75;101337.72;2060742;28;4046;-70
2021/06/15 03:51:07;;;;;;;;;;;;;;;22.35;54.83;101335.19;2059710;28;4071;-70
2021/06/15 03:52:34;;;;;;;;;;;;;;;22.36;54.80;101330.34;2059890;28;4164;-70
2021/06/15 03:54:09;;;;;;;;;;;;;;;22.35;54.85;101332.34;2059990;28;4209;-71
2021/06/15 03:55:37;;;;;;;;;;;;;;;22.35;54.67;101331.53;2059562;28;4241;-71
2021/06/15 03:57:03;;;;;;;;;;;;;;;22.36;54.74;101334.03;2060287;28;4074;-70
2021/06/15 03:58:30;;;;;;;;;;;;;;;22.37;54.79;101337.72;2060291;28;4161;-70
2021/06/15 03:59:56;;;;;;;;;;;;;;;22.35;54.80;101320.94;2061391;28;4081;-70
2021/06/15 04:01:23;;;;;;;;;;;;;;;22.37;54.67;101329.16;2061412;28;4188;-70
2021/06/15 04:02:50;;;;;;;;;;;;;;;22.35;54.73;101326.66;2061494;28;3914;-70
2021/06/15 04:04:17;;;;;;;;;;;;;;;22.36;54.79;101325.47;2059723;28;3769;-70
2021/06/15 04:05:44;;;;;;;;;;;;;;;22.36;54.59;101316.09;2061183;28;4035;-70
2021/06/15 04:07:13;;;;;;;;;;;;;;;22.36;54.71;101322.63;2060293;28;3894;-69
2021/06/15 04:08:39;;;;;;;;;;;;;;;22.36;54.82;101319.78;2060174;28;4002;-70
2021/06/15 04:10:07;;;;;;;;;;;;;;;22.37;54.75;101320.59;2061909;28;3902;-69
2021/06/15 04:11:34;;;;;;;;;;;;;;;22.37;54.64;101320.59;2061059;28;4251;-70
2021/06/15 04:13:01;;;;;;;;;;;;;;;22.37;54.72;101320.59;2059852;28;3938;-70
2021/06/15 04:14:27;;;;;;;;;;;;;;;22.37;54.75;101321.44;2058879;28;4013;-70
2021/06/15 04:15:53;;;;;;;;;;;;;;;22.38;54.73;101322.25;2060110;28;3898;-70
2021/06/15 04:17:19;;;;;;;;;;;;;;;22.37;54.57;101327.13;2061361;28;4191;-70
2021/06/15 04:18:45;;;;;;;;;;;;;;;22.37;54.60;101326.31;2060602;28;4033;-71
2021/06/15 04:20:13;;;;;;;;;;;;;;;22.37;54.69;101320.59;2060033;28;4080;-70
2021/06/15 04:21:40;;;;;;;;;;;;;;;22.38;54.64;101330.81;2062190;28;4891;-71
2021/06/15 04:23:07;;;;;;;;;;;;;;;22.37;54.52;101332.84;2062271;28;4124;-73
2021/06/15 04:24:32;;;;;;;;;;;;;;;22.38;54.52;101333.66;2060812;28;4294;-73
2021/06/15 04:25:59;;;;;;;;;;;;;;;22.38;54.53;101333.66;2053372;28;3983;-72
2021/06/15 04:27:26;;;;;;;;;;;;;;;22.38;54.41;101336.50;2059461;28;4120;-74
2021/06/15 04:28:53;;;;;;;;;;;;;;;22.38;54.51;101339.38;2062378;28;3914;-77
2021/06/15 04:30:19;;;;;;;;;;;;;;;22.39;54.50;101346.75;2061902;28;4124;-72
2021/06/15 04:31:46;;;;;;;;;;;;;;;22.39;54.62;101344.72;2061657;28;4163;-69
2021/06/15 04:33:13;;;;;;;;;;;;;;;22.38;54.63;101336.50;2061457;28;4257;-70
2021/06/15 04:34:40;;;;;;;;;;;;;;;22.38;54.62;101343.03;2062748;28;4213;-70
2021/06/15 04:36:07;;;;;;;;;;;;;;;22.39;54.62;101338.19;2060170;28;4330;-69
2021/06/15 04:37:34;;;;;;;;;;;;;;;22.39;54.48;101338.19;2060575;28;4013;-70
2021/06/15 04:39:00;;;;;;;;;;;;;;;22.39;54.61;101346.75;2062711;28;4098;-70
2021/06/15 04:40:26;;;;;;;;;;;;;;;22.38;54.41;101340.19;2062149;28;4217;-70
2021/06/15 04:41:53;;;;;;;;;;;;;;;22.39;54.60;101338.19;2062611;28;4099;-69
2021/06/15 04:43:20;;;;;;;;;;;;;;;22.38;54.45;101345.91;2061873;28;4566;-70
2021/06/15 04:44:47;;;;;;;;;;;;;;;22.39;54.62;101343.91;2062035;28;4092;-70
2021/06/15 04:46:13;;;;;;;;;;;;;;;22.39;54.52;101341.06;2061249;28;3912;-72
2021/06/15 04:47:41;;;;;;;;;;;;;;;22.38;54.60;101345.91;2060800;28;4193;-70
2021/06/15 04:49:08;;;;;;;;;;;;;;;22.39;54.59;101346.75;2061616;28;3887;-69
2021/06/15 04:50:35;;;;;;;;;;;;;;;22.39;54.50;101349.59;2061214;28;5107;-70
2021/06/15 04:52:02;;;;;;;;;;;;;;;22.39;54.51;101352.47;2061382;28;3917;-72
2021/06/15 04:53:28;;;;;;;;;;;;;;;22.39;54.60;101346.75;2061306;28;4200;-71
2021/06/15 04:54:55;;;;;;;;;;;;;;;22.39;54.65;101349.59;2060897;28;3909;-71
2021/06/15 04:56:22;;;;;;;;;;;;;;;22.39;54.65;101352.47;2061415;28;4208;-71
2021/06/15 04:57:49;;;;;;;;;;;;;;;22.39;54.50;101344.72;2061747;28;3910;-71
2021/06/15 04:59:16;;;;;;;;;;;;;;;22.39;54.46;101346.75;2062112;28;3772;-69
2021/06/15 05:00:42;;;;;;;;;;;;;;;22.39;54.43;101353.28;2061590;28;4245;-70
2021/06/15 05:02:09;;;;;;;;;;;;;;;22.39;54.45;101350.44;2060964;28;3795;-70
2021/06/15 05:03:36;;;;;;;;;;;;;;;22.40;54.62;101351.25;2060638;28;4214;-69
2021/06/15 05:05:02;;;;;;;;;;;;;;;22.39;54.52;101358.16;2058036;28;3909;-70
2021/06/15 05:06:28;;;;;;;;;;;;;;;22.39;54.63;101358.16;2061242;28;4192;-70
2021/06/15 05:07:55;;;;;;;;;;;;;;;22.39;54.55;101361.00;2060678;28;4283;-72
2021/06/15 05:09:22;;;;;;;;;;;;;;;22.40;54.61;101362.66;2060318;28;4359;-71
2021/06/15 05:10:48;;;;;;;;;;;;;;;22.40;54.64;101366.34;2060852;28;3938;-70
2021/06/15 05:12:15;;;;;;;;;;;;;;;22.41;54.66;101364.31;2060875;28;4237;-69
2021/06/15 05:13:41;;;;;;;;;;;;;;;22.40;54.65;101365.50;2061466;28;4030;-68
2021/06/15 05:15:08;;;;;;;;;;;;;;;22.40;54.64;101365.50;2061321;28;3947;-68
2021/06/15 05:16:37;;;;;;;;;;;;;;;22.41;54.66;101364.31;2060649;28;4057;-68
2021/06/15 05:18:04;;;;;;;;;;;;;;;22.41;54.51;101367.16;2060746;28;3925;-68
2021/06/15 05:19:30;;;;;;;;;;;;;;;22.40;54.54;101359.81;2061142;28;4192;-69
2021/06/15 05:20:57;;;;;;;;;;;;;;;22.41;54.56;101370.03;2062427;28;3932;-68
2021/06/15 05:22:25;;;;;;;;;;;;;;;22.41;54.63;101376.59;2059484;28;4251;-68
2021/06/15 05:23:52;;;;;;;;;;;;;;;22.42;54.69;101377.41;2060545;28;3962;-69
2021/06/15 05:25:19;;;;;;;;;;;;;;;22.42;54.62;101383.13;2059633;28;4161;-72
2021/06/15 05:26:46;;;;;;;;;;;;;;;22.42;54.67;101377.41;2060471;28;4100;-69
2021/06/15 05:28:13;;;;;;;;;;;;;;;22.41;54.55;101379.44;2060086;28;4114;-70
2021/06/15 05:29:39;;;;;;;;;;;;;;;22.42;54.72;101385.97;2058584;28;5128;-71
2021/06/15 05:31:05;;;;;;;;;;;;;;;22.42;54.57;101394.53;2060802;28;3804;-69
2021/06/15 05:32:31;;;;;;;;;;;;;;;22.41;54.70;101382.28;2060061;28;4195;-73
2021/06/15 05:33:57;;;;;;;;;;;;;;;22.42;54.79;101386.78;2061152;28;3926;-69
2021/06/15 05:35:23;;;;;;;;;;;;;;;22.42;54.61;101394.53;2060252;28;4425;-71
2021/06/15 05:36:50;;;;;;;;;;;;;;;22.42;54.73;101397.38;2061194;28;4065;-71
2021/06/15 05:38:16;;;;;;;;;;;;;;;22.43;54.58;101401.88;2061699;28;3780;-71
2021/06/15 05:39:42;;;;;;;;;;;;;;;22.42;54.73;101397.38;2061677;28;4060;-69
2021/06/15 05:41:09;;;;;;;;;;;;;;;22.42;54.64;101403.06;2063128;28;4081;-73
2021/06/15 05:42:35;;;;;;;;;;;;;;;22.42;54.78;101401.06;2061689;28;4227;-72
2021/06/15 05:44:01;;;;;;;;;;;;;;;22.41;54.75;101402.25;2052738;28;3898;-72
2021/06/15 05:45:27;;;;;;;;;;;;;;;22.43;54.68;101401.88;2058936;28;4041;-72
2021/06/15 05:46:54;;;;;;;;;;;;;;;22.42;54.59;101403.06;2061363;28;4063;-72
2021/06/15 05:48:20;;;;;;;;;;;;;;;22.42;54.75;101394.53;2061690;28;4185;-72
2021/06/15 05:49:46;;;;;;;;;;;;;;;22.42;54.80;101400.22;2062646;28;4171;-73
2021/06/15 05:51:12;;;;;;;;;;;;;;;22.42;54.84;101408.78;2060990;28;4059;-73
2021/06/15 05:52:38;;;;;;;;;;;;;;;22.42;54.66;101403.91;2059273;28;4185;-72
2021/06/15 05:54:05;;;;;;;;;;;;;;;22.42;54.77;101395.34;2051415;28;3905;-72
2021/06/15 05:55:31;;;;;;;;;;;;;;;22.43;54.69;101393.31;2060803;28;4172;-72
2021/06/15 05:56:57;;;;;;;;;;;;;;;22.42;54.78;101389.66;2061966;28;4016;-72
2021/06/15 05:58:23;;;;;;;;;;;;;;;22.43;54.72;101404.72;2061857;28;4170;-71
2021/06/15 05:59:50;;;;;;;;;;;;;;;22.43;54.77;101396.19;2062326;28;4009;-71
2021/06/15 06:01:16;;;;;;;;;;;;;;;22.43;54.63;101404.72;2062062;28;3838;-72
2021/06/15 06:02:43;;;;;;;;;;;;;;;22.42;54.78;101398.19;2062314;28;4234;-71
2021/06/15 06:04:12;;;;;;;;;;;;;;;22.43;54.60;101404.72;2062088;28;3860;-71
2021/06/15 06:09:08;;;;;;;;;;;;;;;22.43;54.84;101399.84;2061427;28;3837;-73
2021/06/15 06:10:34;;;;;;;;;;;;;;;22.42;54.72;101401.06;2060975;28;3986;-73
2021/06/15 06:12:02;;;;;;;;;;;;;;;22.44;54.86;101394.97;2061005;28;4086;-73
2021/06/15 06:13:29;;;;;;;;;;;;;;;22.43;54.79;101396.19;2060716;28;4185;-72
2021/06/15 06:14:55;;;;;;;;;;;;;;;22.41;54.93;101396.53;2060993;28;3934;-73
2021/06/15 06:16:21;;;;;;;;;;;;;;;22.39;54.82;101392.38;2061195;28;4213;-73
2021/06/15 06:18:08;;;;;;;;;;;;;;;22.37;54.76;101389.84;2060460;28;4113;-74
2021/06/15 06:19:34;;;;;;;;;;;;;;;22.37;54.93;101394.72;2060394;28;4024;-74
2021/06/15 06:21:03;;;;;;;;;;;;;;;22.36;54.92;101393.06;2060234;28;4166;-74
2021/06/15 06:22:30;;;;;;;;;;;;;;;22.35;54.86;101397.09;2059933;28;4211;-74
2021/06/15 06:23:57;;;;;;;;;;;;;;;22.35;54.76;101394.22;2059863;28;5059;-74
2021/06/15 06:25:24;;;;;;;;;;;;;;;22.34;54.74;101398.28;2058358;28;4192;-73
2021/06/15 06:26:51;;;;;;;;;;;;;;;22.33;54.83;101402.28;2060727;28;4025;-74
2021/06/15 06:28:17;;;;;;;;;;;;;;;22.33;54.79;101393.75;2059950;28;3850;-74
2021/06/15 06:29:43;;;;;;;;;;;;;;;22.33;54.88;101399.44;2060722;28;4209;-74
2021/06/15 06:31:10;;;;;;;;;;;;;;;22.32;54.69;101397.78;2060737;28;4060;-74
2021/06/15 06:32:43;;;;;;;;;;;;;;;22.32;54.73;101406.34;2060226;28;4215;-74
2021/06/15 06:34:09;;;;;;;;;;;;;;;22.32;54.80;101407.16;2060227;28;4385;-74
2021/06/15 06:35:37;;;;;;;;;;;;;;;22.31;54.69;101407.53;2060224;28;4020;-74
2021/06/15 06:37:03;;;;;;;;;;;;;;;22.30;54.77;101418.06;2061133;28;4083;-73
2021/06/15 06:38:30;;;;;;;;;;;;;;;22.31;54.80;101413.22;2060112;28;4214;-74
2021/06/15 06:39:56;;;;;;;;;;;;;;;22.29;54.83;101407.88;2061245;28;4861;-74
2021/06/15 06:41:23;;;;;;;;;;;;;;;22.30;54.59;101418.06;2060186;28;4191;-74
2021/06/15 06:42:50;;;;;;;;;;;;;;;22.30;54.70;101422.94;2060094;28;3931;-73
2021/06/15 06:44:16;;;;;;;;;;;;;;;22.29;54.62;101419.28;2061154;28;3902;-73
2021/06/15 06:45:42;;;;;;;;;;;;;;;22.28;54.70;101423.31;2060243;28;4078;-74
2021/06/15 06:47:10;;;;;;;;;;;;;;;22.29;54.73;101427.00;2060855;28;3788;-74
2021/06/15 06:48:36;;;;;;;;;;;;;;;22.28;54.71;101417.63;2060381;28;4231;-74
2021/06/15 06:50:03;;;;;;;;;;;;;;;22.27;54.53;101424.47;2060666;28;4055;-74
2021/06/15 06:51:29;;;;;;;;;;;;;;;22.28;54.70;101428.19;2059847;28;4009;-74
2021/06/15 06:52:55;;;;;;;;;;;;;;;22.28;54.73;101428.19;2057134;28;3961;-73
2021/06/15 06:54:23;;;;;;;;;;;;;;;22.28;54.87;101431.88;2059501;28;5084;-76
2021/06/15 06:55:52;;;;;;;;;;;;;;;22.29;54.57;101427.00;2060122;28;3898;-76
2021/06/15 06:57:18;;;;;;;;;;;;;;;22.30;54.66;101434.34;2059613;28;4058;-75
2021/06/15 06:58:46;;;;;;;;;;;;;;;22.29;54.60;101430.66;2061185;28;3917;-76
2021/06/15 07:00:12;;;;;;;;;;;;;;;22.29;54.49;101424.16;2060444;28;3940;-76
2021/06/15 07:01:39;;;;;;;;;;;;;;;22.29;54.57;101427.00;2059435;28;4198;-74
2021/06/15 07:03:06;;;;;;;;;;;;;;;22.29;54.72;101424.16;2059189;28;4050;-76
2021/06/15 07:04:33;;;;;;;;;;;;;;;22.29;54.68;101424.16;2060161;28;4038;-75
2021/06/15 07:05:59;;;;;;;;;;;;;;;22.28;54.60;101422.47;2060827;28;4008;-75
2021/06/15 07:07:25;;;;;;;;;;;;;;;22.27;54.63;101415.09;2059068;28;4187;-76
2021/06/15 07:08:53;;;;;;;;;;;;;;;22.27;54.78;101417.94;2060083;28;3946;-75
2021/06/15 07:10:20;;;;;;;;;;;;;;;22.26;54.70;101422.81;2060511;28;4244;-72
2021/06/15 07:11:46;;;;;;;;;;;;;;;22.27;54.58;101420.78;2061345;28;4044;-71
2021/06/15 07:13:13;;;;;;;;;;;;;;;22.28;54.49;101425.34;2061100;28;4044;-76
2021/06/15 07:14:40;;;;;;;;;;;;;;;22.28;54.53;101428.19;2060897;28;4177;-76
2021/06/15 07:16:06;;;;;;;;;;;;;;;22.29;54.50;101421.28;2060391;28;4386;-74
2021/06/15 07:17:33;;;;;;;;;;;;;;;22.29;54.58;101424.16;2060666;28;4176;-79
2021/06/15 07:19:00;;;;;;;;;;;;;;;22.29;54.59;101427.00;2060138;28;4068;-77
2021/06/15 07:20:26;;;;;;;;;;;;;;;22.29;54.58;101429.84;2059608;28;4681;-76
2021/06/15 07:21:52;;;;;;;;;;;;;;;22.28;54.57;101431.03;2060134;28;3902;-78
2021/06/15 07:23:24;;;;;;;;;;;;;;;22.29;54.54;101429.84;2059767;28;4003;-74
2021/06/15 07:24:50;;;;;;;;;;;;;;;22.28;54.73;101431.03;2061289;28;4001;-76
2021/06/15 07:26:20;;;;;;;;;;;;;;;22.28;54.78;101436.75;2059775;28;3923;-74
2021/06/15 07:27:47;;;;;;;;;;;;;;;22.27;54.76;101435.88;2060160;28;4183;-80
2021/06/15 07:29:13;;;;;;;;;;;;;;;22.27;54.66;101435.03;2060666;28;3995;-74
2021/06/15 07:30:40;;;;;;;;;;;;;;;22.26;54.68;101436.25;2060368;28;4074;-75
2021/06/15 07:32:15;;;;;;;;;;;;;;;22.26;54.59;101441.94;2059921;28;3949;-72
2021/06/15 07:33:43;;;;;;;;;;;;;;;22.26;54.48;101444.78;2059557;28;4248;-72
2021/06/15 07:35:09;;;;;;;;;;;;;;;22.26;54.72;101441.94;2061072;28;3919;-73
2021/06/15 07:36:35;;;;;;;;;;;;;;;22.26;54.68;101445.63;2059821;28;4063;-72